sensor_id;sensor_type;location;lat;lon;timestamp;pressure;altitude;pressure_sealevel;temperature;humidity
57050;BME280;42935;50.966;16.992;2024-03-06T00:07:43;101829.08;;;4.21;100.00
57050;BME280;42935;50.966;16.992;2024-03-06T00:17:03;101829.90;;;4.74;100.00
57050;BME280;42935;50.966;16.992;2024-03-06T00:26:32;101822.88;;;4.07;100.00
57050;BME280;42935;50.966;16.992;2024-03-06T00:35:50;101835.66;;;4.39;100.00
57050;BME280;42935;50.966;16.992;2024-03-06T00:45:13;101836.25;;;4.52;100.00
57050;BME280;42935;50.966;16.992;2024-03-06T00:54:42;101837.72;;;4.01;100.00
57050;BME280;42935;50.966;16.992;2024-03-06T01:04:11;101841.09;;;4.49;100.00
57050;BME280;42935;50.966;16.992;2024-03-06T01:13:49;101844.25;;;5.11;100.00
57050;BME280;42935;50.966;16.992;2024-03-06T01:23:10;101856.45;;;5.62;100.00
57050;BME280;42935;50.966;16.992;2024-03-06T01:32:36;101867.97;;;4.65;100.00
57050;BME280;42935;50.966;16.992;2024-03-06T01:41:55;101863.77;;;5.26;100.00
57050;BME280;42935;50.966;16.992;2024-03-06T01:51:20;101858.74;;;4.89;100.00
57050;BME280;42935;50.966;16.992;2024-03-06T02:00:30;101869.86;;;4.89;100.00
57050;BME280;42935;50.966;16.992;2024-03-06T02:09:48;101876.78;;;5.26;100.00
57050;BME280;42935;50.966;16.992;2024-03-06T02:19:10;101876.48;;;5.39;100.00
57050;BME280;42935;50.966;16.992;2024-03-06T02:28:30;101862.66;;;5.01;100.00
57050;BME280;42935;50.966;16.992;2024-03-06T02:37:43;101862.84;;;4.64;100.00
57050;BME280;42935;50.966;16.992;2024-03-06T02:47:02;101870.09;;;4.89;100.00
57050;BME280;42935;50.966;16.992;2024-03-06T02:56:21;101878.91;;;5.24;100.00
57050;BME280;42935;50.966;16.992;2024-03-06T03:05:44;101884.93;;;4.38;100.00
57050;BME280;42935;50.966;16.992;2024-03-06T03:15:03;101892.66;;;3.81;100.00
57050;BME280;42935;50.966;16.992;2024-03-06T03:24:27;101901.44;;;4.70;100.00
57050;BME280;42935;50.966;16.992;2024-03-06T03:33:48;101904.77;;;4.55;100.00
57050;BME280;42935;50.966;16.992;2024-03-06T03:43:09;101899.39;;;4.64;100.00
57050;BME280;42935;50.966;16.992;2024-03-06T03:52:30;101921.00;;;4.69;100.00
57050;BME280;42935;50.966;16.992;2024-03-06T04:01:51;101927.99;;;4.67;100.00
57050;BME280;42935;50.966;16.992;2024-03-06T04:11:09;101927.16;;;4.38;100.00
57050;BME280;42935;50.966;16.992;2024-03-06T04:20:28;101937.27;;;4.48;100.00
57050;BME280;42935;50.966;16.992;2024-03-06T04:29:50;101939.49;;;4.40;100.00
57050;BME280;42935;50.966;16.992;2024-03-06T04:39:14;101951.62;;;4.21;100.00
57050;BME280;42935;50.966;16.992;2024-03-06T04:48:35;101965.20;;;3.93;100.00
57050;BME280;42935;50.966;16.992;2024-03-06T04:58:01;101958.56;;;3.82;100.00
57050;BME280;42935;50.966;16.992;2024-03-06T05:07:16;101975.26;;;3.87;100.00
57050;BME280;42935;50.966;16.992;2024-03-06T05:16:36;101969.59;;;3.80;100.00
57050;BME280;42935;50.966;16.992;2024-03-06T05:25:55;101985.30;;;3.86;100.00
57050;BME280;42935;50.966;16.992;2024-03-06T05:35:14;101983.72;;;3.67;100.00
57050;BME280;42935;50.966;16.992;2024-03-06T05:44:39;102000.91;;;3.64;100.00
57050;BME280;42935;50.966;16.992;2024-03-06T05:54:02;102002.27;;;3.78;100.00
57050;BME280;42935;50.966;16.992;2024-03-06T06:03:22;102010.84;;;3.96;100.00
57050;BME280;42935;50.966;16.992;2024-03-06T06:12:50;102017.47;;;3.81;100.00
57050;BME280;42935;50.966;16.992;2024-03-06T06:22:22;102026.97;;;3.61;100.00
57050;BME280;42935;50.966;16.992;2024-03-06T06:31:47;102033.80;;;3.51;100.00
57050;BME280;42935;50.966;16.992;2024-03-06T06:41:16;102031.51;;;3.07;100.00
57050;BME280;42935;50.966;16.992;2024-03-06T06:50:52;102048.77;;;3.03;100.00
57050;BME280;42935;50.966;16.992;2024-03-06T07:00:14;102056.47;;;2.99;100.00
57050;BME280;42935;50.966;16.992;2024-03-06T07:09:54;102061.23;;;3.12;100.00
57050;BME280;42935;50.966;16.992;2024-03-06T07:19:10;102073.34;;;2.46;100.00
57050;BME280;42935;50.966;16.992;2024-03-06T07:28:40;102067.09;;;2.91;100.00
57050;BME280;42935;50.966;16.992;2024-03-06T07:38:14;102080.60;;;3.22;100.00
57050;BME280;42935;50.966;16.992;2024-03-06T07:47:34;102078.75;;;3.21;100.00
57050;BME280;42935;50.966;16.992;2024-03-06T07:57:04;102079.09;;;3.45;100.00
57050;BME280;42935;50.966;16.992;2024-03-06T08:06:34;102095.48;;;3.56;100.00
57050;BME280;42935;50.966;16.992;2024-03-06T08:16:00;102099.03;;;3.68;100.00
57050;BME280;42935;50.966;16.992;2024-03-06T08:25:28;102100.30;;;3.99;100.00
57050;BME280;42935;50.966;16.992;2024-03-06T08:34:57;102095.59;;;3.92;100.00
57050;BME280;42935;50.966;16.992;2024-03-06T08:44:23;102098.45;;;4.46;100.00
57050;BME280;42935;50.966;16.992;2024-03-06T08:53:45;102101.24;;;4.61;100.00
57050;BME280;42935;50.966;16.992;2024-03-06T09:03:17;102105.48;;;4.76;100.00
57050;BME280;42935;50.966;16.992;2024-03-06T09:12:44;102105.85;;;5.20;100.00
57050;BME280;42935;50.966;16.992;2024-03-06T09:22:03;102097.21;;;5.35;94.05
57050;BME280;42935;50.966;16.992;2024-03-06T09:31:34;102112.31;;;5.57;86.16
57050;BME280;42935;50.966;16.992;2024-03-06T09:40:59;102117.17;;;6.01;84.28
57050;BME280;42935;50.966;16.992;2024-03-06T09:50:23;102107.68;;;6.21;81.75
57050;BME280;42935;50.966;16.992;2024-03-06T09:59:37;102108.76;;;6.60;77.78
57050;BME280;42935;50.966;16.992;2024-03-06T10:09:11;102099.13;;;6.94;76.28
57050;BME280;42935;50.966;16.992;2024-03-06T10:18:28;102113.45;;;6.57;73.59
57050;BME280;42935;50.966;16.992;2024-03-06T10:37:29;102114.28;;;7.11;70.49
57050;BME280;42935;50.966;16.992;2024-03-06T10:46:44;102107.89;;;7.68;71.03
57050;BME280;42935;50.966;16.992;2024-03-06T10:56:15;102104.87;;;7.97;68.37
57050;BME280;42935;50.966;16.992;2024-03-06T11:05:46;102099.86;;;7.98;68.05
57050;BME280;42935;50.966;16.992;2024-03-06T11:15:20;102089.59;;;8.04;67.87
57050;BME280;42935;50.966;16.992;2024-03-06T11:24:38;102077.92;;;8.03;67.22
57050;BME280;42935;50.966;16.992;2024-03-06T11:34:04;102096.88;;;8.07;67.67
57050;BME280;42935;50.966;16.992;2024-03-06T11:43:26;102081.89;;;7.84;71.15
57050;BME280;42935;50.966;16.992;2024-03-06T11:52:49;102079.91;;;7.28;75.06
57050;BME280;42935;50.966;16.992;2024-03-06T12:02:15;102086.68;;;7.36;75.47
57050;BME280;42935;50.966;16.992;2024-03-06T12:11:42;102077.77;;;7.25;73.22
57050;BME280;42935;50.966;16.992;2024-03-06T12:21:04;102081.01;;;7.63;72.81
57050;BME280;42935;50.966;16.992;2024-03-06T12:30:24;102073.38;;;7.92;70.78
57050;BME280;42935;50.966;16.992;2024-03-06T12:39:44;102088.77;;;7.86;68.54
57050;BME280;42935;50.966;16.992;2024-03-06T12:49:09;102067.57;;;7.66;68.94
57050;BME280;42935;50.966;16.992;2024-03-06T12:58:32;102084.63;;;8.07;69.13
57050;BME280;42935;50.966;16.992;2024-03-06T13:07:58;102096.46;;;7.81;70.33
57050;BME280;42935;50.966;16.992;2024-03-06T13:17:25;102092.95;;;7.40;72.16
57050;BME280;42935;50.966;16.992;2024-03-06T13:26:48;102094.80;;;7.08;73.17
57050;BME280;42935;50.966;16.992;2024-03-06T13:36:13;102098.10;;;7.15;74.37
57050;BME280;42935;50.966;16.992;2024-03-06T13:45:33;102104.59;;;6.75;75.27
57050;BME280;42935;50.966;16.992;2024-03-06T13:55:02;102103.00;;;6.83;76.02
57050;BME280;42935;50.966;16.992;2024-03-06T14:04:30;102100.47;;;6.36;78.97
57050;BME280;42935;50.966;16.992;2024-03-06T14:14:00;102099.07;;;6.24;79.39
57050;BME280;42935;50.966;16.992;2024-03-06T14:23:27;102103.15;;;6.24;78.95
57050;BME280;42935;50.966;16.992;2024-03-06T14:33:03;102119.56;;;6.06;82.99
57050;BME280;42935;50.966;16.992;2024-03-06T14:42:29;102113.08;;;5.77;85.66
57050;BME280;42935;50.966;16.992;2024-03-06T14:51:54;102114.63;;;5.74;86.23
57050;BME280;42935;50.966;16.992;2024-03-06T15:01:25;102120.61;;;5.69;90.10
57050;BME280;42935;50.966;16.992;2024-03-06T15:10:59;102125.77;;;5.40;96.84
57050;BME280;42935;50.966;16.992;2024-03-06T15:20:30;102138.52;;;5.27;99.97
57050;BME280;42935;50.966;16.992;2024-03-06T15:30:00;102134.80;;;5.13;100.00
57050;BME280;42935;50.966;16.992;2024-03-06T15:39:16;102141.67;;;4.76;100.00
57050;BME280;42935;50.966;16.992;2024-03-06T15:48:36;102148.39;;;4.68;100.00
57050;BME280;42935;50.966;16.992;2024-03-06T15:58:04;102158.73;;;4.65;100.00
57050;BME280;42935;50.966;16.992;2024-03-06T16:07:33;102163.69;;;4.52;100.00
57050;BME280;42935;50.966;16.992;2024-03-06T16:17:03;102162.60;;;4.39;100.00
57050;BME280;42935;50.966;16.992;2024-03-06T16:26:21;102174.06;;;4.32;100.00
57050;BME280;42935;50.966;16.992;2024-03-06T16:35:42;102171.69;;;3.91;100.00
57050;BME280;42935;50.966;16.992;2024-03-06T16:45:02;102178.10;;;4.07;100.00
57050;BME280;42935;50.966;16.992;2024-03-06T16:54:18;102180.73;;;4.16;100.00
57050;BME280;42935;50.966;16.992;2024-03-06T17:03:38;102177.86;;;4.00;100.00
57050;BME280;42935;50.966;16.992;2024-03-06T17:13:02;102176.80;;;3.94;100.00
57050;BME280;42935;50.966;16.992;2024-03-06T17:22:21;102196.09;;;4.05;100.00
57050;BME280;42935;50.966;16.992;2024-03-06T17:31:49;102188.31;;;3.85;100.00
57050;BME280;42935;50.966;16.992;2024-03-06T17:41:09;102196.16;;;3.95;100.00
57050;BME280;42935;50.966;16.992;2024-03-06T17:50:34;102188.65;;;3.96;100.00
57050;BME280;42935;50.966;16.992;2024-03-06T17:59:57;102188.95;;;3.86;100.00
57050;BME280;42935;50.966;16.992;2024-03-06T18:09:28;102196.83;;;3.92;100.00
57050;BME280;42935;50.966;16.992;2024-03-06T18:18:54;102191.92;;;4.00;100.00
57050;BME280;42935;50.966;16.992;2024-03-06T18:28:26;102193.71;;;4.17;100.00
57050;BME280;42935;50.966;16.992;2024-03-06T18:37:50;102202.33;;;4.33;100.00
57050;BME280;42935;50.966;16.992;2024-03-06T18:47:23;102196.38;;;4.08;100.00
57050;BME280;42935;50.966;16.992;2024-03-06T18:56:43;102197.55;;;3.99;100.00
57050;BME280;42935;50.966;16.992;2024-03-06T19:06:19;102206.04;;;4.33;100.00
57050;BME280;42935;50.966;16.992;2024-03-06T19:15:46;102209.32;;;4.34;100.00
57050;BME280;42935;50.966;16.992;2024-03-06T19:25:24;102197.78;;;4.31;100.00
57050;BME280;42935;50.966;16.992;2024-03-06T19:34:56;102212.25;;;4.69;100.00
57050;BME280;42935;50.966;16.992;2024-03-06T19:44:24;102207.89;;;4.58;100.00
57050;BME280;42935;50.966;16.992;2024-03-06T19:53:54;102214.50;;;4.56;100.00
57050;BME280;42935;50.966;16.992;2024-03-06T20:03:22;102217.03;;;4.75;100.00
57050;BME280;42935;50.966;16.992;2024-03-06T20:12:48;102219.59;;;4.75;100.00
57050;BME280;42935;50.966;16.992;2024-03-06T20:22:15;102214.69;;;5.06;100.00
57050;BME280;42935;50.966;16.992;2024-03-06T20:31:44;102220.32;;;5.03;100.00
57050;BME280;42935;50.966;16.992;2024-03-06T20:41:10;102226.72;;;4.96;100.00
57050;BME280;42935;50.966;16.992;2024-03-06T20:50:45;102229.71;;;5.18;100.00
57050;BME280;42935;50.966;16.992;2024-03-06T21:00:07;102231.15;;;5.29;100.00
57050;BME280;42935;50.966;16.992;2024-03-06T21:09:38;102236.21;;;5.21;100.00
57050;BME280;42935;50.966;16.992;2024-03-06T21:19:09;102237.80;;;5.11;100.00
57050;BME280;42935;50.966;16.992;2024-03-06T21:28:30;102242.09;;;4.92;100.00
57050;BME280;42935;50.966;16.992;2024-03-06T21:37:58;102248.22;;;4.91;100.00
57050;BME280;42935;50.966;16.992;2024-03-06T21:47:21;102253.79;;;4.89;100.00
57050;BME280;42935;50.966;16.992;2024-03-06T21:56:55;102256.30;;;4.97;100.00
57050;BME280;42935;50.966;16.992;2024-03-06T22:06:17;102256.60;;;4.91;100.00
57050;BME280;42935;50.966;16.992;2024-03-06T22:15:39;102255.34;;;4.97;100.00
57050;BME280;42935;50.966;16.992;2024-03-06T22:25:05;102245.84;;;4.63;100.00
57050;BME280;42935;50.966;16.992;2024-03-06T22:34:26;102254.94;;;4.60;100.00
57050;BME280;42935;50.966;16.992;2024-03-06T22:43:54;102275.71;;;4.59;100.00
57050;BME280;42935;50.966;16.992;2024-03-06T22:53:16;102277.14;;;4.64;100.00
57050;BME280;42935;50.966;16.992;2024-03-06T23:02:32;102272.63;;;4.72;100.00
57050;BME280;42935;50.966;16.992;2024-03-06T23:11:48;102282.50;;;4.36;100.00
57050;BME280;42935;50.966;16.992;2024-03-06T23:21:06;102281.63;;;4.43;100.00
57050;BME280;42935;50.966;16.992;2024-03-06T23:30:22;102276.23;;;4.05;100.00
57050;BME280;42935;50.966;16.992;2024-03-06T23:39:47;102282.62;;;4.38;100.00
57050;BME280;42935;50.966;16.992;2024-03-06T23:49:12;102281.09;;;4.15;100.00
57050;BME280;42935;50.966;16.992;2024-03-06T23:58:36;102289.41;;;4.26;100.00
